createdAt,value
2023-04-26T00:01:38.690Z,1.73
2023-04-26T00:04:05.633Z,1.45
2023-04-26T00:06:32.597Z,1.58
2023-04-26T00:08:59.268Z,1.73
2023-04-26T00:11:31.400Z,1.95
2023-04-26T00:14:00.099Z,2.08
2023-04-26T00:16:26.876Z,1.77
2023-04-26T00:18:54.928Z,2.05
2023-04-26T00:21:22.108Z,1.67
2023-04-26T00:23:49.224Z,1.80
2023-04-26T00:26:16.093Z,1.50
2023-04-26T00:28:42.953Z,2.05
2023-04-26T00:31:15.936Z,1.77
2023-04-26T00:33:42.814Z,1.98
2023-04-26T00:36:10.986Z,1.80
2023-04-26T00:38:37.807Z,1.90
2023-04-26T00:41:04.602Z,1.48
2023-04-26T00:43:31.312Z,1.17
2023-04-26T00:45:58.457Z,2.10
2023-04-26T00:48:26.487Z,1.90
2023-04-26T00:50:53.279Z,1.73
2023-04-26T00:53:21.839Z,1.33
2023-04-26T00:55:49.397Z,2.40
2023-04-26T00:58:16.256Z,1.48
2023-04-26T01:00:43.016Z,1.27
2023-04-26T01:03:12.552Z,1.13
2023-04-26T01:05:40.999Z,1.90
2023-04-26T01:08:07.811Z,2.00
2023-04-26T01:10:36.062Z,1.75
2023-04-26T01:13:03.792Z,1.92
2023-04-26T01:15:31.005Z,1.52
2023-04-26T01:17:57.785Z,1.42
2023-04-26T01:20:26.124Z,1.85
2023-04-26T01:22:54.344Z,1.75
2023-04-26T01:25:21.485Z,1.63
2023-04-26T01:27:48.420Z,1.23
2023-04-26T01:30:15.224Z,1.50
2023-04-26T01:32:42.327Z,1.40
2023-04-26T01:35:12.655Z,1.27
2023-04-26T01:37:39.382Z,1.95
2023-04-26T01:40:09.900Z,1.40
2023-04-26T01:42:36.663Z,1.95
2023-04-26T01:45:03.999Z,1.52
2023-04-26T01:47:30.764Z,1.55
2023-04-26T01:49:57.631Z,1.75
2023-04-26T01:52:24.504Z,1.60
2023-04-26T01:54:51.429Z,1.80
2023-04-26T01:57:19.858Z,1.88
2023-04-26T01:59:46.670Z,1.55
2023-04-26T02:02:13.381Z,1.67
2023-04-26T02:04:40.233Z,1.73
2023-04-26T02:07:07.204Z,2.00
2023-04-26T02:09:34.019Z,2.10
2023-04-26T02:12:00.758Z,1.80
2023-04-26T02:14:28.806Z,1.45
2023-04-26T02:16:57.447Z,1.83
2023-04-26T02:19:24.282Z,1.98
2023-04-26T02:21:55.830Z,2.13
2023-04-26T02:24:23.173Z,2.10
2023-04-26T02:26:49.924Z,2.10
2023-04-26T02:29:16.877Z,2.08
2023-04-26T02:31:44.937Z,2.50
2023-04-26T02:34:12.315Z,2.55
2023-04-26T02:36:40.059Z,2.13
2023-04-26T02:39:07.579Z,1.75
2023-04-26T02:41:34.439Z,2.80
2023-04-26T02:44:01.113Z,2.13
2023-04-26T02:46:27.877Z,2.47
2023-04-26T02:48:56.161Z,1.98
2023-04-26T02:51:23.085Z,2.05
2023-04-26T02:53:49.943Z,2.13
2023-04-26T02:56:16.777Z,2.30
2023-04-26T02:58:43.533Z,2.40
2023-04-26T03:01:10.458Z,2.17
2023-04-26T03:03:37.797Z,2.33
2023-04-26T03:06:06.812Z,2.90
2023-04-26T03:08:35.352Z,2.38
2023-04-26T03:11:02.162Z,2.78
2023-04-26T03:13:29.323Z,2.67
2023-04-26T03:15:56.102Z,2.70
2023-04-26T03:18:22.915Z,2.33
2023-04-26T03:20:50.281Z,2.53
2023-04-26T03:23:18.428Z,2.75
2023-04-26T03:25:45.861Z,2.75
2023-04-26T03:28:14.883Z,3.20
2023-04-26T03:30:42.801Z,2.47
2023-04-26T03:33:09.735Z,2.63
2023-04-26T03:35:36.916Z,2.95
2023-04-26T03:38:03.659Z,2.92
2023-04-26T03:40:31.815Z,2.53
2023-04-26T03:42:58.498Z,2.70
2023-04-26T03:45:26.779Z,2.53
2023-04-26T03:47:53.553Z,3.05
2023-04-26T03:50:20.441Z,2.80
2023-04-26T03:52:47.175Z,2.53
2023-04-26T03:55:13.988Z,2.85
2023-04-26T03:57:43.623Z,2.72
2023-04-26T04:00:13.758Z,3.42
2023-04-26T04:02:41.181Z,3.13
2023-04-26T04:05:09.438Z,3.03
2023-04-26T04:07:36.189Z,2.63
2023-04-26T04:10:03.415Z,2.38
2023-04-26T04:12:30.094Z,3.38
2023-04-26T04:14:58.099Z,3.13
2023-04-26T04:17:25.010Z,2.40
2023-04-26T04:19:51.675Z,3.15
2023-04-26T04:22:18.418Z,2.67
2023-04-26T04:24:45.193Z,2.85
2023-04-26T04:27:12.146Z,2.85
2023-04-26T04:29:38.856Z,2.65
2023-04-26T04:32:09.053Z,3.08
2023-04-26T04:34:36.277Z,2.83
2023-04-26T04:37:04.196Z,3.78
2023-04-26T04:39:31.048Z,2.72
2023-04-26T04:41:58.402Z,2.78
2023-04-26T04:44:27.007Z,3.15
2023-04-26T04:46:54.043Z,4.13
2023-04-26T04:49:22.414Z,3.28
2023-04-26T04:51:49.169Z,2.88
2023-04-26T04:54:18.131Z,3.10
2023-04-26T04:56:45.351Z,2.97
2023-04-26T04:59:12.224Z,3.22
2023-04-26T05:01:39.011Z,3.22
2023-04-26T05:04:07.528Z,3.45
2023-04-26T05:06:36.278Z,3.20
2023-04-26T05:09:05.325Z,3.20
2023-04-26T05:11:33.094Z,3.40
2023-04-26T05:13:59.960Z,2.42
2023-04-26T05:16:26.719Z,3.35
2023-04-26T05:18:53.946Z,2.58
2023-04-26T05:21:22.082Z,3.33
2023-04-26T05:23:50.413Z,2.97
2023-04-26T05:26:19.118Z,2.97
2023-04-26T05:28:45.917Z,2.40
2023-04-26T05:31:13.046Z,2.35
2023-04-26T05:33:39.852Z,2.88
2023-04-26T05:36:09.270Z,2.60
2023-04-26T05:38:37.075Z,2.97
2023-04-26T05:41:05.252Z,2.80
2023-04-26T05:43:32.016Z,2.67
2023-04-26T05:45:58.781Z,2.47
2023-04-26T05:48:25.997Z,2.55
2023-04-26T05:50:53.188Z,2.33
2023-04-26T05:53:20.713Z,2.45
2023-04-26T05:55:47.496Z,2.55
2023-04-26T05:58:15.786Z,2.67
2023-04-26T06:00:43.046Z,2.03
2023-04-26T06:03:10.099Z,1.92
2023-04-26T06:05:38.412Z,2.20
2023-04-26T06:08:11.514Z,2.22
2023-04-26T06:10:38.303Z,2.28
2023-04-26T06:13:05.156Z,2.53
2023-04-26T06:15:34.138Z,2.25
2023-04-26T06:18:01.076Z,2.22
2023-04-26T06:20:28.100Z,2.13
2023-04-26T06:22:55.000Z,2.70
2023-04-26T06:25:21.940Z,2.10
2023-04-26T06:27:48.819Z,2.03
2023-04-26T06:30:16.213Z,2.80
2023-04-26T06:32:44.527Z,2.67
2023-04-26T06:35:14.592Z,2.40
2023-04-26T06:37:41.646Z,2.30
2023-04-26T06:40:09.542Z,2.10
2023-04-26T06:42:37.927Z,1.90
2023-04-26T06:45:05.520Z,1.90
2023-04-26T06:47:32.489Z,2.20
2023-04-26T06:50:02.700Z,1.60
2023-04-26T06:52:30.040Z,1.88
2023-04-26T06:54:57.770Z,1.75
2023-04-26T06:57:24.817Z,1.70
2023-04-26T06:59:51.629Z,1.92
2023-04-26T07:02:18.576Z,2.08
2023-04-26T07:04:45.858Z,1.50
2023-04-26T07:07:15.488Z,1.52
2023-04-26T07:09:42.274Z,2.38
2023-04-26T07:12:11.469Z,1.85
2023-04-26T07:14:43.377Z,1.65
2023-04-26T07:17:10.578Z,1.73
2023-04-26T07:19:37.647Z,1.60
2023-04-26T07:22:04.868Z,1.60
2023-04-26T07:24:33.350Z,1.70
2023-04-26T07:27:00.175Z,1.77
2023-04-26T07:29:27.876Z,1.20
2023-04-26T07:31:57.271Z,1.13
2023-04-26T07:34:24.334Z,1.20
2023-04-26T07:36:51.077Z,1.38
2023-04-26T07:39:18.178Z,1.30
2023-04-26T07:41:47.659Z,1.02
2023-04-26T07:44:14.395Z,1.05
2023-04-26T07:46:42.145Z,0.95
2023-04-26T07:49:09.094Z,0.93
2023-04-26T07:51:36.546Z,0.80
2023-04-26T07:54:03.456Z,0.80
2023-04-26T07:56:30.367Z,0.60
2023-04-26T07:58:58.627Z,0.82
2023-04-26T08:01:25.746Z,0.55
2023-04-26T08:03:53.472Z,1.10
2023-04-26T08:06:20.775Z,0.80
2023-04-26T08:08:50.776Z,0.85
2023-04-26T08:11:18.342Z,0.80
2023-04-26T08:13:45.854Z,1.00
2023-04-26T08:16:14.533Z,0.90
2023-04-26T08:18:41.863Z,1.30
2023-04-26T08:21:10.678Z,0.90
2023-04-26T08:23:37.615Z,0.80
2023-04-26T08:26:04.547Z,0.85
2023-04-26T08:28:31.576Z,0.82
2023-04-26T08:30:58.646Z,0.57
2023-04-26T08:33:26.914Z,0.70
2023-04-26T08:35:53.710Z,1.00
2023-04-26T08:38:22.757Z,0.70
2023-04-26T08:40:53.802Z,1.05
2023-04-26T08:43:21.472Z,1.23
2023-04-26T08:45:48.946Z,0.90
2023-04-26T08:48:18.180Z,1.20
2023-04-26T08:50:46.885Z,0.70
2023-04-26T08:53:18.331Z,1.20
2023-04-26T08:55:48.461Z,1.00
2023-04-26T08:58:16.898Z,1.10
2023-04-26T09:00:45.410Z,0.90
2023-04-26T09:03:12.555Z,1.05
2023-04-26T09:05:40.353Z,0.70
2023-04-26T09:08:09.496Z,0.70
2023-04-26T09:10:36.377Z,0.65
2023-04-26T09:13:03.254Z,0.70
2023-04-26T09:15:30.097Z,1.10
2023-04-26T09:17:57.217Z,0.55
2023-04-26T09:20:27.902Z,0.57
2023-04-26T09:23:07.437Z,0.90
2023-04-26T09:25:36.812Z,0.82
2023-04-26T09:28:18.564Z,0.77
2023-04-26T09:30:45.578Z,0.73
2023-04-26T09:33:12.434Z,1.00
2023-04-26T09:35:40.494Z,0.60
2023-04-26T09:38:12.798Z,0.80
2023-04-26T09:40:44.666Z,0.80
2023-04-26T09:43:13.181Z,0.80
2023-04-26T09:45:46.091Z,0.60
2023-04-26T09:48:17.623Z,0.90
2023-04-26T09:50:48.633Z,1.00
2023-04-26T09:53:29.900Z,0.70
2023-04-26T09:56:09.582Z,1.02
2023-04-26T09:58:38.913Z,0.82
2023-04-26T10:01:08.102Z,1.10
2023-04-26T10:03:36.162Z,0.88
2023-04-26T10:06:04.334Z,0.68
2023-04-26T10:08:32.589Z,0.82
2023-04-26T10:11:04.248Z,0.68
2023-04-26T10:13:32.823Z,0.73
2023-04-26T10:16:00.296Z,0.75
2023-04-26T10:18:27.405Z,1.08
2023-04-26T10:20:58.480Z,0.60
2023-04-26T10:23:28.390Z,0.82
2023-04-26T10:25:55.846Z,0.80
2023-04-26T10:28:56.160Z,0.95
2023-04-26T10:32:06.202Z,1.20
2023-04-26T10:34:34.853Z,1.35
2023-04-26T10:37:09.544Z,1.00
2023-04-26T10:39:36.994Z,1.38
2023-04-26T10:42:24.281Z,1.27
2023-04-26T10:44:52.306Z,1.35
2023-04-26T10:47:27.123Z,1.55
2023-04-26T10:50:05.729Z,1.10
2023-04-26T10:52:34.458Z,1.30
2023-04-26T10:55:02.778Z,0.80
2023-04-26T10:57:59.811Z,1.33
2023-04-26T11:00:32.351Z,0.98
2023-04-26T11:03:15.474Z,0.80
2023-04-26T11:05:52.377Z,0.80
2023-04-26T11:08:20.744Z,0.98
2023-04-26T11:10:52.540Z,0.82
2023-04-26T11:15:49.995Z,0.93
2023-04-26T11:18:23.357Z,1.33
2023-04-26T11:20:50.267Z,1.25
2023-04-26T11:23:18.808Z,1.30
2023-04-26T11:25:45.938Z,0.80
2023-04-26T11:28:12.841Z,1.15
2023-04-26T11:30:39.658Z,0.90
2023-04-26T11:33:06.629Z,1.10
2023-04-26T11:35:36.049Z,1.02
2023-04-26T11:38:10.585Z,0.43
2023-04-26T11:40:37.510Z,0.70
2023-04-26T11:43:05.746Z,0.80
2023-04-26T11:45:33.793Z,0.85
2023-04-26T11:48:02.084Z,0.85
2023-04-26T11:50:31.355Z,0.60
2023-04-26T11:53:00.954Z,1.00
2023-04-26T11:55:29.549Z,0.85
2023-04-26T11:57:59.860Z,0.80
2023-04-26T12:00:28.279Z,0.90
2023-04-26T12:02:58.356Z,0.68
2023-04-26T12:05:32.979Z,0.70
2023-04-26T12:08:01.715Z,0.80
2023-04-26T12:10:32.545Z,0.80
2023-04-26T12:13:00.107Z,0.90
2023-04-26T12:15:31.005Z,0.80
2023-04-26T12:18:00.060Z,0.90
2023-04-26T12:20:32.024Z,0.70
2023-04-26T12:23:02.352Z,0.75
2023-04-26T12:25:34.259Z,1.05
2023-04-26T12:28:01.841Z,1.00
2023-04-26T12:30:29.679Z,1.05
2023-04-26T12:33:05.830Z,1.23
2023-04-26T12:35:42.374Z,1.42
2023-04-26T12:38:10.790Z,1.23
2023-04-26T12:40:37.903Z,1.20
2023-04-26T12:43:04.960Z,1.10
2023-04-26T12:45:31.749Z,1.00
2023-04-26T12:47:58.876Z,1.13
2023-04-26T12:50:26.225Z,1.10
2023-04-26T12:52:53.185Z,1.00
2023-04-26T12:55:21.405Z,1.10
2023-04-26T12:57:48.353Z,1.02
2023-04-26T13:00:21.621Z,1.13
2023-04-26T13:02:48.692Z,1.08
2023-04-26T13:05:16.326Z,1.20
2023-04-26T13:07:44.419Z,1.00
2023-04-26T13:10:13.203Z,0.93
2023-04-26T13:12:41.563Z,0.50
2023-04-26T13:15:09.118Z,0.80
2023-04-26T13:17:37.507Z,0.90
2023-04-26T13:20:07.437Z,0.80
2023-04-26T13:22:34.614Z,1.33
2023-04-26T13:25:05.773Z,0.82
2023-04-26T13:27:32.638Z,1.40
2023-04-26T13:30:01.625Z,0.80
2023-04-26T13:32:29.392Z,1.15
2023-04-26T13:34:56.933Z,1.10
2023-04-26T13:37:24.152Z,1.42
2023-04-26T13:39:51.160Z,0.95
2023-04-26T13:42:18.360Z,1.00
2023-04-26T13:44:45.280Z,1.17
2023-04-26T13:47:13.529Z,0.82
2023-04-26T13:49:41.865Z,0.90
2023-04-26T13:52:08.860Z,0.70
2023-04-26T13:54:36.883Z,1.05
2023-04-26T13:57:03.979Z,1.05
2023-04-26T13:59:31.168Z,1.42
2023-04-26T14:01:59.805Z,1.05
2023-04-26T14:04:28.383Z,1.40
2023-04-26T14:06:55.661Z,0.90
2023-04-26T14:09:22.449Z,1.02
2023-04-26T14:11:57.135Z,0.93
2023-04-26T14:14:34.810Z,1.02
2023-04-26T14:17:01.795Z,0.85
2023-04-26T14:19:30.023Z,0.80
2023-04-26T14:21:56.776Z,0.90
2023-04-26T14:24:23.636Z,1.08
2023-04-26T14:26:50.808Z,0.80
2023-04-26T14:29:17.576Z,0.80
2023-04-26T14:31:45.083Z,0.82
2023-04-26T14:34:13.922Z,0.70
2023-04-26T14:36:42.046Z,0.82
2023-04-26T14:39:08.854Z,0.93
2023-04-26T14:41:35.976Z,0.93
2023-04-26T14:44:02.866Z,0.80
2023-04-26T14:46:29.714Z,1.55
2023-04-26T14:48:57.643Z,1.77
2023-04-26T14:51:24.574Z,1.65
2023-04-26T14:53:52.705Z,1.10
2023-04-26T14:56:21.354Z,1.50
2023-04-26T14:58:48.220Z,1.27
2023-04-26T15:01:15.032Z,1.08
2023-04-26T15:03:45.382Z,1.10
2023-04-26T15:06:13.720Z,1.00
2023-04-26T15:08:42.096Z,1.17
2023-04-26T15:11:11.630Z,0.95
2023-04-26T15:13:38.565Z,0.98
2023-04-26T15:16:08.032Z,1.13
2023-04-26T15:18:35.102Z,1.00
2023-04-26T15:21:01.846Z,1.10
2023-04-26T15:23:28.616Z,0.90
2023-04-26T15:25:55.394Z,1.10
2023-04-26T15:28:24.856Z,0.93
2023-04-26T15:30:51.762Z,1.20
2023-04-26T15:33:18.902Z,0.82
2023-04-26T15:35:46.060Z,1.20
2023-04-26T15:38:12.884Z,1.15
2023-04-26T15:40:39.955Z,1.50
2023-04-26T15:43:07.004Z,1.65
2023-04-26T15:45:36.811Z,0.90
2023-04-26T15:48:04.336Z,0.82
2023-04-26T15:50:31.583Z,0.85
2023-04-26T15:52:59.493Z,0.85
2023-04-26T15:55:26.493Z,0.73
2023-04-26T15:57:53.461Z,0.93
2023-04-26T16:00:21.358Z,0.93
2023-04-26T16:02:49.686Z,1.13
2023-04-26T16:05:17.021Z,1.15
2023-04-26T16:07:44.024Z,2.08
2023-04-26T16:10:11.125Z,1.02
2023-04-26T16:12:39.766Z,1.48
2023-04-26T16:15:10.499Z,1.50
2023-04-26T16:17:38.393Z,1.40
2023-04-26T16:20:08.288Z,1.70
2023-04-26T16:22:35.866Z,1.60
2023-04-26T16:25:07.150Z,1.35
2023-04-26T16:27:35.956Z,1.20
2023-04-26T16:30:03.936Z,1.42
2023-04-26T16:32:30.749Z,1.20
2023-04-26T16:34:59.745Z,1.35
2023-04-26T16:37:29.358Z,1.20
2023-04-26T16:39:56.467Z,1.25
2023-04-26T16:42:23.309Z,1.30
2023-04-26T16:44:50.034Z,1.25
2023-04-26T16:47:17.942Z,1.10
2023-04-26T16:49:44.753Z,1.50
2023-04-26T16:52:11.571Z,1.23
2023-04-26T16:54:39.694Z,1.10
2023-04-26T16:57:06.616Z,1.08
2023-04-26T16:59:33.445Z,1.30
2023-04-26T17:02:01.702Z,0.90
2023-04-26T17:04:30.177Z,1.02
2023-04-26T17:06:57.235Z,1.05
2023-04-26T17:09:24.412Z,1.02
2023-04-26T17:11:54.418Z,1.30
2023-04-26T17:14:21.259Z,1.38
2023-04-26T17:16:49.292Z,1.08
2023-04-26T17:19:16.985Z,1.25
2023-04-26T17:21:43.697Z,1.08
2023-04-26T17:24:10.473Z,1.20
2023-04-26T17:26:37.278Z,1.02
2023-04-26T17:29:05.464Z,1.48
2023-04-26T17:31:32.322Z,1.60
2023-04-26T17:33:59.281Z,1.25
2023-04-26T17:36:26.784Z,1.17
2023-04-26T17:38:53.857Z,1.20
2023-04-26T17:41:22.261Z,1.88
2023-04-26T17:43:48.970Z,1.60
2023-04-26T17:46:17.729Z,1.85
2023-04-26T17:48:44.448Z,1.10
2023-04-26T17:51:12.063Z,1.02
2023-04-26T17:53:38.996Z,0.80
2023-04-26T17:56:07.652Z,0.77
2023-04-26T17:58:34.518Z,1.00
2023-04-26T18:01:01.619Z,0.90
2023-04-26T18:03:30.311Z,1.08
2023-04-26T18:05:57.301Z,0.90
2023-04-26T18:08:24.165Z,0.70
2023-04-26T18:10:53.873Z,0.82
2023-04-26T18:13:21.079Z,1.02
2023-04-26T18:15:47.975Z,0.90
2023-04-26T18:18:14.700Z,0.75
2023-04-26T18:20:43.072Z,0.65
2023-04-26T18:23:09.838Z,0.60
2023-04-26T18:25:37.424Z,0.93
2023-04-26T18:28:04.365Z,0.60
2023-04-26T18:30:31.247Z,0.70
2023-04-26T18:32:58.097Z,0.60
2023-04-26T18:35:25.312Z,0.70
2023-04-26T18:37:53.523Z,0.40
2023-04-26T18:40:20.314Z,1.00
2023-04-26T18:42:47.094Z,0.52
2023-04-26T18:45:13.866Z,0.60
2023-04-26T18:47:41.400Z,0.73
2023-04-26T18:50:10.153Z,0.80
2023-04-26T18:52:39.588Z,0.75
2023-04-26T18:55:08.564Z,0.68
2023-04-26T18:57:35.263Z,0.60
2023-04-26T19:00:02.265Z,0.63
2023-04-26T19:02:30.448Z,0.68
2023-04-26T19:04:58.068Z,0.40
2023-04-26T19:07:24.852Z,0.70
2023-04-26T19:09:54.500Z,0.95
2023-04-26T19:12:23.025Z,0.73
2023-04-26T19:14:49.770Z,0.73
2023-04-26T19:17:16.674Z,0.68
2023-04-26T19:19:43.527Z,0.80
2023-04-26T19:22:10.439Z,1.00
2023-04-26T19:24:37.343Z,0.60
2023-04-26T19:27:04.669Z,0.80
2023-04-26T19:29:33.139Z,0.90
2023-04-26T19:32:04.467Z,0.90
2023-04-26T19:34:32.907Z,0.82
2023-04-26T19:36:59.682Z,0.93
2023-04-26T19:39:26.403Z,0.88
2023-04-26T19:41:53.424Z,0.98
2023-04-26T19:44:21.340Z,0.90
2023-04-26T19:46:49.475Z,0.90
2023-04-26T19:49:17.621Z,1.10
2023-04-26T19:51:44.382Z,1.52
2023-04-26T19:54:11.271Z,1.10
2023-04-26T19:56:37.949Z,0.68
2023-04-26T19:59:04.896Z,0.70
2023-04-26T20:01:32.284Z,1.27
2023-04-26T20:04:00.717Z,0.88
2023-04-26T20:06:27.639Z,0.90
2023-04-26T20:08:54.246Z,0.80
2023-04-26T20:11:20.932Z,1.00
2023-04-26T20:13:47.622Z,1.15
2023-04-26T20:16:14.375Z,1.00
2023-04-26T20:18:41.392Z,0.98
2023-04-26T20:21:09.543Z,1.17
2023-04-26T20:23:36.563Z,0.90
2023-04-26T20:26:04.790Z,1.30
2023-04-26T20:28:31.602Z,1.38
2023-04-26T20:30:58.383Z,1.25
2023-04-26T20:33:25.252Z,1.63
2023-04-26T20:35:53.765Z,1.13
2023-04-26T20:38:21.851Z,1.27
2023-04-26T20:40:48.797Z,0.90
2023-04-26T20:43:16.161Z,1.30
2023-04-26T20:45:42.919Z,0.68
2023-04-26T20:48:09.735Z,0.70
2023-04-26T20:50:36.841Z,1.00
2023-04-26T20:53:04.332Z,0.93
2023-04-26T20:55:33.886Z,1.00
2023-04-26T20:58:00.655Z,0.82
2023-04-26T21:00:27.357Z,0.75
2023-04-26T21:02:54.301Z,0.60
2023-04-26T21:05:21.679Z,0.85
2023-04-26T21:07:48.519Z,0.70
2023-04-26T21:10:15.394Z,0.88
2023-04-26T21:12:43.982Z,1.20
2023-04-26T21:15:11.531Z,0.80
2023-04-26T21:17:40.703Z,0.88
2023-04-26T21:20:08.305Z,0.95
2023-04-26T21:22:34.965Z,0.93
2023-04-26T21:25:01.796Z,0.73
2023-04-26T21:27:28.753Z,1.02
2023-04-26T21:29:56.818Z,1.02
2023-04-26T21:32:23.533Z,1.00
2023-04-26T21:34:50.690Z,0.68
2023-04-26T21:37:17.408Z,0.98
2023-04-26T21:39:44.548Z,0.63
2023-04-26T21:42:12.182Z,0.95
2023-04-26T21:44:38.859Z,0.93
2023-04-26T21:47:07.096Z,0.70
2023-04-26T21:49:34.717Z,1.05
2023-04-26T21:52:01.471Z,0.90
2023-04-26T21:54:28.207Z,0.90
2023-04-26T21:56:54.945Z,0.77
2023-04-26T21:59:21.687Z,0.93
2023-04-26T22:01:48.423Z,1.00
2023-04-26T22:04:16.723Z,1.13
2023-04-26T22:06:43.619Z,1.35
2023-04-26T22:09:10.473Z,1.45
2023-04-26T22:11:37.335Z,1.13
2023-04-26T22:14:04.232Z,1.10
2023-04-26T22:16:31.917Z,1.35
2023-04-26T22:18:58.944Z,0.95
2023-04-26T22:21:28.423Z,1.10
2023-04-26T22:23:55.206Z,1.02
2023-04-26T22:26:22.483Z,1.23
2023-04-26T22:28:49.828Z,1.10
2023-04-26T22:31:17.119Z,1.13
2023-04-26T22:33:43.981Z,1.08
2023-04-26T22:36:12.456Z,1.13
2023-04-26T22:38:40.849Z,1.13
2023-04-26T22:41:08.042Z,1.27
2023-04-26T22:43:35.206Z,1.48
2023-04-26T22:46:02.225Z,1.60
2023-04-26T22:48:29.082Z,1.05
2023-04-26T22:50:55.996Z,1.25
2023-04-26T22:53:22.779Z,1.42
2023-04-26T22:55:51.839Z,1.48
2023-04-26T22:58:18.998Z,1.45
2023-04-26T23:00:45.797Z,1.75
2023-04-26T23:03:12.796Z,1.55
2023-04-26T23:05:39.843Z,1.50
2023-04-26T23:08:06.734Z,1.35
2023-04-26T23:10:33.517Z,1.63
2023-04-26T23:13:02.516Z,1.45
2023-04-26T23:15:29.297Z,1.50
2023-04-26T23:17:56.095Z,1.17
2023-04-26T23:20:23.973Z,1.48
2023-04-26T23:22:51.038Z,1.02
2023-04-26T23:25:19.899Z,1.23
2023-04-26T23:27:47.182Z,1.13
2023-04-26T23:30:16.376Z,1.48
2023-04-26T23:32:43.356Z,1.30
2023-04-26T23:35:11.933Z,1.40
2023-04-26T23:37:38.762Z,1.33
2023-04-26T23:40:06.924Z,1.60
2023-04-26T23:42:33.717Z,1.38
2023-04-26T23:45:00.643Z,1.33
2023-04-26T23:47:30.737Z,1.55
2023-04-26T23:49:57.557Z,1.27
2023-04-26T23:52:24.291Z,1.05
2023-04-26T23:54:51.478Z,1.60
2023-04-26T23:57:18.202Z,1.35
2023-04-26T23:59:45.089Z,1.42
